Time;durP1;ratioP1;P1;durP2;ratioP2;P2;SDS_P1;SDS_P2;PMS_P1;PMS_P2;Temp;Humidity;BMP_temperature;BMP_pressure;BME280_temperature;BME280_humidity;BME280_pressure;Samples;Min_cycle;Max_cycle;Signal;HPM_P1;HPM_P2
2023/01/01 00:01:20;;;;;;;10.38;8.75;;;14.00;99.90;;;;;;2609133;54;20029;31
2023/01/01 00:03:53;;;;;;;10.45;7.35;;;14.00;99.90;;;;;;2610629;54;20057;31
2023/01/01 00:06:26;;;;;;;9.55;5.88;;;14.10;99.90;;;;;;2602339;54;20042;31
2023/01/01 00:11:48;;;;;;;7.35;5.22;;;14.10;99.90;;;;;;2603250;54;20050;31
2023/01/01 00:14:23;;;;;;;7.78;4.45;;;14.20;99.90;;;;;;2605827;54;20030;31
2023/01/01 00:16:59;;;;;;;8.05;5.00;;;14.20;99.90;;;;;;2603192;54;20031;31
2023/01/01 00:19:34;;;;;;;6.95;4.32;;;14.20;99.90;;;;;;2603029;54;20052;31
2023/01/01 00:22:09;;;;;;;4.80;3.30;;;14.30;99.90;;;;;;2603035;54;20027;31
2023/01/01 00:25:07;;;;;;;6.05;3.63;;;14.30;99.90;;;;;;2603131;54;20026;31
2023/01/01 00:27:42;;;;;;;5.30;3.20;;;14.30;99.90;;;;;;2602937;54;20029;31
2023/01/01 00:30:16;;;;;;;5.23;3.97;;;14.40;99.90;;;;;;2621329;47;20018;31
2023/01/01 00:32:53;;;;;;;5.38;3.35;;;14.40;99.90;;;;;;2603228;54;19938;31
2023/01/01 00:35:29;;;;;;;6.10;4.25;;;14.40;99.90;;;;;;2603239;54;20997;31
2023/01/01 00:38:03;;;;;;;5.30;3.10;;;14.50;99.90;;;;;;2612268;54;20037;31
2023/01/01 00:40:41;;;;;;;6.50;3.22;;;14.50;99.90;;;;;;2602970;54;20859;31
2023/01/01 00:43:16;;;;;;;3.95;2.70;;;14.60;99.90;;;;;;2602990;54;20953;31
2023/01/01 00:45:54;;;;;;;4.80;3.17;;;14.60;99.90;;;;;;2603125;54;20878;31
2023/01/01 00:48:30;;;;;;;3.90;2.50;;;14.70;99.90;;;;;;2602774;54;20136;31
2023/01/01 00:51:05;;;;;;;;;;;14.70;99.90;;;;;;2602865;54;20939;31
2023/01/01 00:53:39;;;;;;;5.00;2.73;;;14.70;99.90;;;;;;2612451;54;19931;31
2023/01/01 00:56:17;;;;;;;5.28;2.80;;;14.70;99.90;;;;;;2602807;54;21113;31
2023/01/01 00:58:52;;;;;;;4.45;2.65;;;14.80;99.90;;;;;;2602861;54;20927;31
2023/01/01 01:01:35;;;;;;;4.40;2.00;;;14.80;99.90;;;;;;2602742;54;20034;31
2023/01/01 01:04:10;;;;;;;4.63;2.23;;;14.80;99.90;;;;;;2603108;54;20027;31
2023/01/01 01:06:44;;;;;;;3.45;2.47;;;14.80;99.90;;;;;;2603847;54;20128;31
2023/01/01 01:09:19;;;;;;;4.70;2.63;;;14.80;99.90;;;;;;2603828;54;20798;31
2023/01/01 01:11:57;;;;;;;3.70;2.40;;;14.80;99.90;;;;;;2603705;54;20035;31
2023/01/01 01:14:51;;;;;;;4.60;2.30;;;14.80;99.90;;;;;;2603484;54;20022;31
2023/01/01 01:17:26;;;;;;;2.72;1.70;;;14.80;99.90;;;;;;2603474;54;20113;31
2023/01/01 01:20:00;;;;;;;3.03;1.75;;;14.80;99.90;;;;;;2603945;54;20030;31
2023/01/01 01:22:36;;;;;;;4.15;2.20;;;14.80;99.90;;;;;;2603705;54;20886;31
2023/01/01 01:25:11;;;;;;;;;;;14.80;99.90;;;;;;2604077;54;20878;31
2023/01/01 01:27:49;;;;;;;3.97;2.20;;;14.80;99.90;;;;;;2622163;46;20758;31
2023/01/01 01:32:55;;;;;;;2.92;1.60;;;14.90;99.90;;;;;;2603867;54;20092;31
2023/01/01 01:35:29;;;;;;;2.92;1.55;;;14.90;99.90;;;;;;2603712;54;19942;31
2023/01/01 01:38:04;;;;;;;2.75;1.55;;;15.00;99.90;;;;;;2603703;54;20898;31
2023/01/01 01:40:38;;;;;;;3.80;1.80;;;15.00;99.90;;;;;;2602883;54;20036;31
2023/01/01 01:43:22;;;;;;;2.27;1.53;;;15.10;99.90;;;;;;2603695;54;20030;31
2023/01/01 01:45:56;;;;;;;3.15;1.90;;;15.10;99.90;;;;;;2622328;46;20757;31
2023/01/01 01:48:31;;;;;;;2.70;1.45;;;15.20;99.90;;;;;;2603949;54;20046;31
2023/01/01 01:51:07;;;;;;;2.70;1.70;;;15.30;99.90;;;;;;2603665;54;20046;31
2023/01/01 01:53:43;;;;;;;5.13;3.22;;;15.40;99.90;;;;;;2603616;54;20907;31
2023/01/01 01:56:21;;;;;;;2.50;1.70;;;15.40;99.90;;;;;;2603682;54;20900;31
2023/01/01 01:58:59;;;;;;;2.40;1.52;;;15.50;99.90;;;;;;2603732;54;20061;31
2023/01/01 02:01:34;;;;;;;2.73;1.53;;;15.60;99.90;;;;;;2603484;54;20860;31
2023/01/01 02:04:08;;;;;;;;;;;15.70;99.90;;;;;;2603940;54;20030;31
2023/01/01 02:06:43;;;;;;;2.40;1.65;;;15.70;99.90;;;;;;2603779;54;19993;31
2023/01/01 02:09:17;;;;;;;2.50;1.48;;;15.80;99.90;;;;;;2603481;54;20930;31
2023/01/01 02:11:51;;;;;;;2.90;1.92;;;15.80;99.90;;;;;;2603709;54;20026;31
2023/01/01 02:14:28;;;;;;;3.17;1.77;;;15.80;99.90;;;;;;2602738;54;21014;31
2023/01/01 02:17:05;;;;;;;2.65;1.85;;;15.80;99.90;;;;;;2603538;54;20030;31
2023/01/01 02:19:45;;;;;;;4.25;2.05;;;15.80;99.90;;;;;;2603425;54;20096;31
2023/01/01 02:22:29;;;;;;;3.72;1.70;;;15.80;99.90;;;;;;2603570;54;20964;31
2023/01/01 02:25:12;;;;;;;3.90;1.90;;;15.90;99.90;;;;;;2603565;54;20122;31
2023/01/01 02:27:50;;;;;;;2.10;1.55;;;15.90;99.90;;;;;;2603547;54;20940;31
2023/01/01 02:30:27;;;;;;;2.90;1.70;;;15.80;99.90;;;;;;2603718;54;20914;31
2023/01/01 02:33:02;;;;;;;3.15;1.80;;;15.80;99.90;;;;;;2603347;54;20915;31
2023/01/01 02:35:37;;;;;;;3.58;1.40;;;15.80;99.90;;;;;;2603462;54;20026;31
2023/01/01 02:38:13;;;;;;;2.80;1.50;;;15.80;99.90;;;;;;2603550;54;20042;31
2023/01/01 02:40:50;;;;;;;2.88;1.38;;;15.80;99.90;;;;;;2603373;54;20950;31
2023/01/01 02:43:25;;;;;;;2.20;1.20;;;15.80;99.90;;;;;;2603370;54;20806;31
2023/01/01 02:46:02;;;;;;;3.03;1.40;;;15.80;99.90;;;;;;2603638;54;20305;31
2023/01/01 02:48:45;;;;;;;3.50;1.63;;;15.80;99.90;;;;;;2603494;54;20027;31
2023/01/01 02:51:23;;;;;;;2.20;1.50;;;15.80;99.90;;;;;;2702132;39;21124;31
2023/01/01 02:53:55;;;;;;;2.60;1.45;;;15.80;99.90;;;;;;2603655;54;20097;31
2023/01/01 02:56:35;;;;;;;3.05;1.35;;;15.80;99.90;;;;;;2621975;46;20033;31
2023/01/01 03:02:18;;;;;;;3.17;1.30;;;15.80;99.90;;;;;;2603343;54;20109;31
2023/01/01 03:04:59;;;;;;;2.53;1.55;;;15.80;99.90;;;;;;2603597;54;20105;31
2023/01/01 03:07:37;;;;;;;2.70;1.30;;;15.90;99.90;;;;;;2603373;54;20026;31
2023/01/01 03:10:14;;;;;;;2.60;1.55;;;15.90;99.90;;;;;;2603255;54;20022;31
2023/01/01 03:12:49;;;;;;;4.18;1.70;;;15.90;99.90;;;;;;2603173;54;20133;31
2023/01/01 03:15:26;;;;;;;5.85;1.70;;;15.90;99.90;;;;;;2603343;54;20034;31
2023/01/01 03:18:07;;;;;;;3.30;1.55;;;15.90;99.90;;;;;;2603405;54;20815;31
2023/01/01 03:20:41;;;;;;;2.13;1.30;;;15.90;99.90;;;;;;2603490;54;20266;31
2023/01/01 03:23:17;;;;;;;3.25;1.80;;;15.90;99.90;;;;;;2603443;54;20038;31
2023/01/01 03:25:53;;;;;;;3.60;1.52;;;15.90;99.90;;;;;;2603192;54;20058;31
2023/01/01 03:28:30;;;;;;;2.55;1.65;;;15.80;99.90;;;;;;2603036;54;20042;31
2023/01/01 03:31:06;;;;;;;2.42;1.83;;;15.80;99.90;;;;;;2603381;54;20073;31
2023/01/01 03:33:43;;;;;;;4.07;1.87;;;15.80;99.90;;;;;;2603237;54;20106;31
2023/01/01 03:36:18;;;;;;;3.57;2.20;;;15.80;99.90;;;;;;2603382;54;20934;31
2023/01/01 03:38:54;;;;;;;4.47;2.00;;;15.80;99.90;;;;;;2622034;46;20053;31
2023/01/01 03:41:31;;;;;;;4.50;2.08;;;15.80;99.90;;;;;;2603325;54;20030;31
2023/01/01 03:44:05;;;;;;;4.47;2.00;;;15.80;99.90;;;;;;2609371;39;20972;31
2023/01/01 03:46:39;;;;;;;4.13;2.33;;;15.80;99.90;;;;;;2603354;54;20023;31
2023/01/01 03:49:16;;;;;;;3.60;2.03;;;15.70;99.90;;;;;;2603260;54;20106;31
2023/01/01 03:52:07;;;;;;;3.55;2.03;;;15.70;99.90;;;;;;2603473;54;20112;31
2023/01/01 03:54:46;;;;;;;4.50;2.40;;;15.70;99.90;;;;;;2603173;54;20089;31
2023/01/01 03:57:24;;;;;;;4.35;2.20;;;15.70;99.90;;;;;;2603272;54;20592;31
2023/01/01 04:00:02;;;;;;;3.90;2.67;;;15.60;99.90;;;;;;2603242;54;20971;31
2023/01/01 04:02:47;;;;;;;5.60;2.30;;;15.60;99.90;;;;;;2603303;54;20029;31
2023/01/01 04:05:24;;;;;;;4.90;2.60;;;15.60;99.90;;;;;;2603058;54;20916;31
2023/01/01 04:07:59;;;;;;;3.65;2.13;;;15.60;99.90;;;;;;2603283;54;20030;31
2023/01/01 04:10:35;;;;;;;3.97;2.50;;;15.60;99.90;;;;;;2603433;54;20050;31
2023/01/01 04:13:09;;;;;;;3.95;2.50;;;15.60;99.90;;;;;;2603099;54;20865;31
2023/01/01 04:15:44;;;;;;;3.38;2.10;;;15.60;99.90;;;;;;2621571;46;20049;31
2023/01/01 04:18:18;;;;;;;3.60;2.25;;;15.60;99.90;;;;;;2614135;31;21097;31
2023/01/01 04:20:55;;;;;;;4.32;2.25;;;15.60;99.90;;;;;;2602759;54;20026;31
2023/01/01 04:23:30;;;;;;;3.20;2.30;;;15.50;99.90;;;;;;2621434;46;20101;31
2023/01/01 04:26:05;;;;;;;5.63;2.28;;;15.50;99.90;;;;;;2602819;54;20081;31
2023/01/01 04:28:41;;;;;;;3.53;2.58;;;15.50;99.90;;;;;;2603130;54;20031;31
2023/01/01 04:31:16;;;;;;;6.25;2.22;;;15.50;99.90;;;;;;2603183;54;20030;31
2023/01/01 04:33:51;;;;;;;3.15;2.10;;;15.50;99.90;;;;;;2610313;47;20152;31
2023/01/01 04:36:29;;;;;;;3.90;2.20;;;15.50;99.90;;;;;;2602998;54;20086;31
2023/01/01 04:39:04;;;;;;;4.20;2.42;;;15.40;99.90;;;;;;2603143;54;20033;31
2023/01/01 04:41:38;;;;;;;4.65;1.90;;;15.40;99.90;;;;;;2702261;39;20444;31
2023/01/01 04:44:11;;;;;;;4.97;2.03;;;15.30;99.90;;;;;;2603833;54;20175;31
2023/01/01 04:46:45;;;;;;;3.17;1.90;;;15.30;99.90;;;;;;2603864;54;20879;31
2023/01/01 04:49:20;;;;;;;4.05;2.15;;;15.20;99.90;;;;;;2622232;46;20030;31
2023/01/01 04:51:57;;;;;;;3.38;2.08;;;15.20;99.90;;;;;;2603664;54;20029;31
2023/01/01 04:54:32;;;;;;;6.37;2.47;;;15.10;99.90;;;;;;2603965;54;20882;31
2023/01/01 04:57:06;;;;;;;4.83;2.30;;;15.10;99.90;;;;;;2603880;54;20789;31
2023/01/01 04:59:40;;;;;;;3.45;2.35;;;15.00;99.90;;;;;;2603919;54;21028;31
2023/01/01 05:02:14;;;;;;;2.50;1.58;;;15.00;99.90;;;;;;2603136;54;20250;31
2023/01/01 05:04:46;;;;;;;3.03;1.98;;;15.00;99.90;;;;;;2603823;54;20156;31
2023/01/01 05:07:23;;;;;;;3.80;2.03;;;15.00;99.90;;;;;;2603734;54;20026;31
2023/01/01 05:09:57;;;;;;;3.05;2.00;;;15.00;99.90;;;;;;2603514;54;20048;31
2023/01/01 05:12:33;;;;;;;4.70;2.38;;;15.00;99.90;;;;;;2603768;54;20042;31
2023/01/01 05:15:09;;;;;;;2.92;1.98;;;15.10;99.90;;;;;;2622172;46;20033;31
2023/01/01 05:17:43;;;;;;;;;;;15.10;99.90;;;;;;2604054;54;21533;31
2023/01/01 05:20:18;;;;;;;2.75;1.80;;;15.10;99.90;;;;;;2603644;54;19935;31
2023/01/01 05:22:55;;;;;;;5.03;2.43;;;15.00;99.90;;;;;;2603707;54;20023;31
2023/01/01 05:25:31;;;;;;;3.75;1.90;;;15.00;99.90;;;;;;2603725;54;20037;31
2023/01/01 05:28:05;;;;;;;4.63;2.27;;;15.00;99.90;;;;;;2603703;54;20085;31
2023/01/01 05:30:41;;;;;;;3.93;2.10;;;15.00;99.90;;;;;;2603600;54;20038;31
2023/01/01 05:33:17;;;;;;;4.15;2.03;;;15.00;99.90;;;;;;2603560;54;20027;31
2023/01/01 05:35:55;;;;;;;3.43;2.20;;;15.00;99.90;;;;;;2603849;54;20920;31
2023/01/01 05:38:33;;;;;;;3.85;2.20;;;15.00;99.90;;;;;;2603538;54;21143;31
2023/01/01 05:41:07;;;;;;;3.72;2.17;;;15.00;99.90;;;;;;2604219;54;20022;31
2023/01/01 05:43:42;;;;;;;3.53;2.00;;;14.90;99.90;;;;;;2603750;54;20913;31
2023/01/01 05:46:15;;;;;;;4.43;2.38;;;15.00;99.90;;;;;;2603392;54;22303;31
2023/01/01 05:48:49;;;;;;;4.60;2.13;;;14.90;99.90;;;;;;2603626;54;20132;31
2023/01/01 05:51:25;;;;;;;5.70;2.30;;;15.00;99.90;;;;;;2603586;54;20890;31
2023/01/01 05:54:02;;;;;;;5.13;2.10;;;14.90;99.90;;;;;;2603443;54;20033;31
2023/01/01 05:56:36;;;;;;;4.72;2.60;;;14.90;99.90;;;;;;2603808;54;19934;31
2023/01/01 05:59:11;;;;;;;3.53;2.20;;;14.90;99.90;;;;;;2603551;54;20027;31
2023/01/01 06:01:46;;;;;;;3.05;1.80;;;15.00;99.90;;;;;;2603750;54;20891;31
2023/01/01 06:04:21;;;;;;;3.60;2.10;;;15.00;99.90;;;;;;2603532;54;20057;31
2023/01/01 06:06:54;;;;;;;3.95;2.17;;;14.90;99.90;;;;;;2603711;54;20023;31
2023/01/01 06:09:31;;;;;;;4.88;2.20;;;15.00;99.90;;;;;;2603674;54;20818;31
2023/01/01 06:12:08;;;;;;;3.13;2.27;;;14.90;99.90;;;;;;2603322;54;20809;31
2023/01/01 06:14:43;;;;;;;3.72;2.38;;;14.90;99.90;;;;;;2603671;54;20273;31
2023/01/01 06:17:17;;;;;;;4.25;2.42;;;15.00;99.90;;;;;;2603360;54;20885;31
2023/01/01 06:19:53;;;;;;;4.25;2.05;;;15.00;99.90;;;;;;2603380;54;20026;31
2023/01/01 06:22:27;;;;;;;3.97;2.20;;;14.90;99.90;;;;;;2603578;54;20030;31
2023/01/01 06:25:06;;;;;;;3.20;2.10;;;14.90;99.90;;;;;;2603341;54;20818;31
2023/01/01 06:27:40;;;;;;;4.03;2.33;;;14.90;99.90;;;;;;2603390;54;20900;31
2023/01/01 06:30:16;;;;;;;4.05;2.13;;;14.90;99.90;;;;;;2603614;54;20093;31
2023/01/01 06:32:51;;;;;;;5.57;2.00;;;14.90;99.90;;;;;;2603555;54;20053;31
2023/01/01 06:35:27;;;;;;;3.50;1.80;;;14.90;99.90;;;;;;2603338;54;20938;31
2023/01/01 06:38:02;;;;;;;3.53;1.98;;;14.90;99.90;;;;;;2603418;54;20278;31
2023/01/01 06:40:40;;;;;;;4.03;2.08;;;14.90;99.90;;;;;;2603637;54;20027;31
2023/01/01 06:43:15;;;;;;;3.73;2.63;;;14.80;99.90;;;;;;2603742;54;20881;31
2023/01/01 06:45:50;;;;;;;3.40;1.83;;;14.80;99.90;;;;;;2603686;54;20818;31
2023/01/01 06:48:25;;;;;;;6.20;2.07;;;14.80;99.90;;;;;;2603256;54;20081;31
2023/01/01 06:51:00;;;;;;;4.25;2.25;;;14.70;99.90;;;;;;2603333;54;20254;31
2023/01/01 06:53:35;;;;;;;5.60;2.27;;;14.70;99.90;;;;;;2603469;54;20046;31
2023/01/01 06:56:12;;;;;;;3.17;1.83;;;14.70;99.90;;;;;;2621758;46;20085;31
2023/01/01 06:58:48;;;;;;;2.92;1.70;;;14.70;99.90;;;;;;2603288;54;20034;31
2023/01/01 07:01:23;;;;;;;4.50;2.35;;;14.70;99.90;;;;;;2603279;54;20031;31
2023/01/01 07:03:59;;;;;;;3.97;2.35;;;14.60;99.90;;;;;;2603418;54;20022;31
2023/01/01 07:06:34;;;;;;;4.60;2.38;;;14.60;99.90;;;;;;2603221;54;20898;31
2023/01/01 07:09:09;;;;;;;4.60;2.30;;;14.50;99.90;;;;;;2603257;54;20085;31
2023/01/01 07:11:47;;;;;;;3.83;2.05;;;14.60;99.90;;;;;;2603415;54;20030;31
2023/01/01 07:14:23;;;;;;;3.42;2.28;;;14.60;99.90;;;;;;2603326;54;20875;31
2023/01/01 07:16:58;;;;;;;3.45;1.88;;;14.50;99.90;;;;;;2603159;54;20920;31
2023/01/01 07:19:32;;;;;;;3.85;2.35;;;14.50;99.90;;;;;;2603319;54;20022;31
2023/01/01 07:22:09;;;;;;;5.78;2.45;;;14.50;99.90;;;;;;2603248;54;20034;31
2023/01/01 07:24:45;;;;;;;3.67;2.08;;;14.50;99.90;;;;;;2603427;54;20105;31
2023/01/01 07:27:22;;;;;;;3.33;1.75;;;14.50;99.90;;;;;;2603286;54;20029;31
2023/01/01 07:29:57;;;;;;;2.95;1.80;;;14.50;99.90;;;;;;2603568;54;20044;31
2023/01/01 07:32:31;;;;;;;5.15;1.95;;;14.50;99.90;;;;;;2603055;54;20032;31
2023/01/01 07:35:09;;;;;;;5.72;2.20;;;14.60;99.90;;;;;;2603265;54;20033;31
2023/01/01 07:37:44;;;;;;;7.03;2.17;;;14.60;99.90;;;;;;2621565;46;20023;31
2023/01/01 07:40:19;;;;;;;2.92;1.92;;;14.60;99.90;;;;;;2621760;46;20033;31
2023/01/01 07:42:54;;;;;;;3.67;2.15;;;14.70;99.90;;;;;;2603383;54;20108;31
2023/01/01 07:45:31;;;;;;;2.90;1.65;;;15.00;99.90;;;;;;2621955;46;20026;31
2023/01/01 07:50:39;;;;;;;3.63;1.98;;;15.50;99.90;;;;;;2603355;54;20849;31
2023/01/01 07:53:13;;;;;;;3.30;2.13;;;15.90;99.90;;;;;;2603346;54;20880;31
2023/01/01 07:55:47;;;;;;;3.10;2.00;;;16.20;99.90;;;;;;2602974;54;20033;31
2023/01/01 07:58:25;;;;;;;4.03;2.20;;;16.50;99.90;;;;;;2603107;54;20815;31
2023/01/01 08:01:03;;;;;;;5.00;2.53;;;16.80;99.90;;;;;;2603263;54;20050;31
2023/01/01 08:03:38;;;;;;;3.45;2.00;;;17.00;99.90;;;;;;2603119;54;20026;31
2023/01/01 08:06:13;;;;;;;4.30;2.20;;;17.30;99.90;;;;;;2603414;54;20029;31
2023/01/01 08:08:48;;;;;;;6.00;2.00;;;17.40;99.90;;;;;;2603202;54;20366;31
2023/01/01 08:11:24;;;;;;;3.05;2.10;;;17.60;99.90;;;;;;2603159;54;20843;31
2023/01/01 08:13:59;;;;;;;3.85;2.63;;;17.80;99.90;;;;;;2602948;54;20048;31
2023/01/01 08:16:38;;;;;;;6.05;2.15;;;17.80;99.90;;;;;;2603351;54;20925;31
2023/01/01 08:19:14;;;;;;;4.97;2.00;;;17.90;99.90;;;;;;2603071;54;20085;31
2023/01/01 08:21:48;;;;;;;5.63;2.40;;;18.00;99.90;;;;;;2603067;54;20799;31
2023/01/01 08:24:24;;;;;;;3.80;2.03;;;18.10;99.90;;;;;;2603081;54;20026;31
2023/01/01 08:27:00;;;;;;;4.15;1.83;;;18.20;99.90;;;;;;2603016;54;20260;31
2023/01/01 08:29:35;;;;;;;;;;;18.30;99.90;;;;;;2719582;39;20500;31
2023/01/01 08:32:09;;;;;;;6.70;2.00;;;18.50;99.90;;;;;;2603101;54;19934;31
2023/01/01 08:34:47;;;;;;;4.23;2.27;;;18.80;99.90;;;;;;2603132;54;20862;31
2023/01/01 08:37:22;;;;;;;5.57;2.10;;;18.80;99.90;;;;;;2603251;54;20840;31
2023/01/01 08:40:00;;;;;;;4.40;2.20;;;18.90;99.90;;;;;;2602874;54;20904;31
2023/01/01 08:42:36;;;;;;;3.45;1.80;;;18.90;99.90;;;;;;2602860;54;20913;31
2023/01/01 08:45:14;;;;;;;4.75;2.10;;;19.00;99.90;;;;;;2602845;54;20073;31
2023/01/01 08:47:49;;;;;;;5.18;1.90;;;19.00;99.90;;;;;;2603089;54;20829;31
2023/01/01 08:50:28;;;;;;;5.18;2.15;;;18.90;99.90;;;;;;2602881;54;20836;31
2023/01/01 08:53:03;;;;;;;3.88;2.03;;;19.00;99.90;;;;;;2602928;54;21001;31
2023/01/01 08:55:38;;;;;;;2.60;1.80;;;18.90;99.90;;;;;;2603245;54;20030;31
2023/01/01 08:58:13;;;;;;;6.55;1.98;;;18.80;99.90;;;;;;2602928;54;20029;31
2023/01/01 09:03:21;;;;;;;5.53;1.85;;;18.80;99.90;;;;;;2602883;54;20803;31
2023/01/01 09:06:02;;;;;;;4.30;2.20;;;18.70;99.90;;;;;;2603059;54;20022;31
2023/01/01 09:08:41;;;;;;;5.00;2.35;;;18.70;99.90;;;;;;2602867;54;20128;31
2023/01/01 09:11:24;;;;;;;4.27;2.30;;;18.70;99.90;;;;;;2602811;54;20034;31
2023/01/01 09:14:00;;;;;;;3.38;2.28;;;18.70;99.90;;;;;;2602996;54;20848;31
2023/01/01 09:16:35;;;;;;;;;;;18.70;99.90;;;;;;2602917;54;20065;31
2023/01/01 09:19:18;;;;;;;3.78;2.40;;;18.80;99.90;;;;;;2603069;54;19938;31
2023/01/01 09:21:57;;;;;;;4.30;1.70;;;18.90;99.90;;;;;;2602998;54;20081;31
2023/01/01 09:24:33;;;;;;;2.95;1.80;;;18.90;99.90;;;;;;2602838;54;20030;31
2023/01/01 09:27:11;;;;;;;3.30;1.90;;;19.00;99.90;;;;;;2603639;54;24075;31
2023/01/01 09:29:48;;;;;;;6.72;2.80;;;19.00;99.90;;;;;;2603750;54;20158;31
2023/01/01 09:32:24;;;;;;;5.35;2.45;;;19.10;99.90;;;;;;2603801;54;20060;31
2023/01/01 09:35:00;;;;;;;4.50;2.30;;;19.10;99.90;;;;;;2603910;54;20022;31
2023/01/01 09:37:39;;;;;;;3.85;2.15;;;19.10;99.90;;;;;;2603726;54;20977;31
2023/01/01 09:40:17;;;;;;;4.55;2.50;;;19.10;99.90;;;;;;2602877;54;20920;31
2023/01/01 09:42:54;;;;;;;5.72;2.33;;;19.10;99.90;;;;;;2603022;54;20856;31
2023/01/01 09:45:32;;;;;;;3.05;2.00;;;19.30;99.90;;;;;;2603507;54;20949;31
2023/01/01 09:48:12;;;;;;;3.90;2.00;;;19.30;99.90;;;;;;2603616;54;20030;31
2023/01/01 09:50:48;;;;;;;3.92;2.28;;;19.40;99.90;;;;;;2621861;46;20027;31
2023/01/01 09:53:36;;;;;;;3.05;1.90;;;19.50;99.90;;;;;;2603852;54;20026;31
2023/01/01 09:56:13;;;;;;;3.45;1.70;;;19.60;99.90;;;;;;2603516;54;25052;31
2023/01/01 09:58:48;;;;;;;3.25;1.80;;;19.60;99.90;;;;;;2603793;54;20909;31
2023/01/01 10:01:35;;;;;;;4.75;2.05;;;19.60;99.90;;;;;;2603634;54;20046;31
2023/01/01 10:04:24;;;;;;;3.40;2.20;;;19.60;99.90;;;;;;2603643;54;20038;31
2023/01/01 10:07:05;;;;;;;5.93;2.13;;;19.60;99.90;;;;;;2603476;54;20902;31
2023/01/01 10:09:46;;;;;;;4.22;2.00;;;19.60;99.90;;;;;;2603379;54;20026;31
2023/01/01 10:12:25;;;;;;;3.72;1.80;;;19.50;99.90;;;;;;2603871;54;20826;31
2023/01/01 10:15:04;;;;;;;3.30;1.55;;;19.50;99.90;;;;;;2603638;54;20026;31
2023/01/01 10:17:42;;;;;;;2.30;1.70;;;19.60;99.90;;;;;;2603766;54;20081;31
2023/01/01 10:20:22;;;;;;;2.97;2.07;;;19.60;99.90;;;;;;2603460;54;20022;31
2023/01/01 10:23:01;;;;;;;3.50;2.05;;;19.60;99.90;;;;;;2603554;54;20917;31
2023/01/01 10:25:40;;;;;;;2.67;1.90;;;19.60;99.90;;;;;;2603672;54;20072;31
2023/01/01 10:28:16;;;;;;;4.43;2.20;;;19.50;99.90;;;;;;2603448;54;20033;31
2023/01/01 10:30:54;;;;;;;3.85;1.80;;;19.60;99.90;;;;;;2603597;54;20089;31
2023/01/01 10:33:34;;;;;;;3.35;1.83;;;19.50;99.90;;;;;;2603462;54;20034;31
2023/01/01 10:36:12;;;;;;;3.10;2.30;;;19.50;99.90;;;;;;2603362;54;20030;31
2023/01/01 10:38:48;;;;;;;5.50;1.90;;;19.50;99.90;;;;;;2603052;54;20046;31
2023/01/01 10:41:31;;;;;;;3.40;2.00;;;19.40;99.90;;;;;;2603523;54;20056;31
2023/01/01 10:44:08;;;;;;;3.78;1.83;;;19.30;99.90;;;;;;2603522;54;20027;31
2023/01/01 10:46:45;;;;;;;3.22;2.00;;;19.20;99.90;;;;;;2603595;54;20093;31
2023/01/01 10:49:21;;;;;;;3.53;2.27;;;19.10;99.90;;;;;;2603562;54;20022;31
2023/01/01 10:51:58;;;;;;;5.13;2.03;;;19.00;99.90;;;;;;2603527;54;20026;31
2023/01/01 10:54:35;;;;;;;5.05;2.45;;;19.00;99.90;;;;;;2603643;54;20061;31
2023/01/01 10:57:23;;;;;;;3.47;2.30;;;19.00;99.90;;;;;;2603327;54;20033;31
2023/01/01 10:59:58;;;;;;;3.97;2.38;;;19.00;99.90;;;;;;2603573;54;20899;31
2023/01/01 11:02:37;;;;;;;5.72;2.72;;;19.00;99.90;;;;;;2603353;54;20822;31
2023/01/01 11:05:17;;;;;;;4.10;2.80;;;19.00;99.90;;;;;;2603564;54;20868;31
2023/01/01 11:07:56;;;;;;;5.50;2.42;;;18.90;99.90;;;;;;2603271;54;19981;31
2023/01/01 11:10:35;;;;;;;5.22;2.65;;;18.80;99.90;;;;;;2602831;54;20046;31
2023/01/01 11:13:18;;;;;;;4.70;2.55;;;18.80;99.90;;;;;;2603303;54;20000;31
2023/01/01 11:15:54;;;;;;;3.15;2.35;;;18.70;99.90;;;;;;2603394;54;20071;31
2023/01/01 11:18:34;;;;;;;4.88;2.80;;;18.70;99.90;;;;;;2603306;54;20913;31
2023/01/01 11:21:11;;;;;;;4.38;2.70;;;18.60;99.90;;;;;;2603471;54;20081;31
2023/01/01 11:23:47;;;;;;;5.47;2.70;;;18.50;99.90;;;;;;2603447;54;20033;31
2023/01/01 11:26:23;;;;;;;;;;;18.50;99.90;;;;;;2603369;54;20022;31
2023/01/01 11:29:05;;;;;;;4.85;2.75;;;18.50;99.90;;;;;;2603566;54;19941;31
2023/01/01 11:34:23;;;;;;;4.20;2.70;;;18.40;99.90;;;;;;2603361;54;20787;31
2023/01/01 11:37:09;;;;;;;4.38;2.78;;;18.40;99.90;;;;;;2603122;54;20881;31
2023/01/01 11:39:44;;;;;;;3.75;2.33;;;18.40;99.90;;;;;;2603247;54;20802;31
2023/01/01 11:42:20;;;;;;;3.47;2.50;;;18.40;99.90;;;;;;2603658;54;19935;31
2023/01/01 11:44:59;;;;;;;4.40;2.70;;;18.40;99.90;;;;;;2603358;54;20022;31
2023/01/01 11:47:37;;;;;;;4.87;3.07;;;18.40;99.90;;;;;;2603344;54;20804;31
2023/01/01 11:50:21;;;;;;;5.53;3.10;;;18.30;99.90;;;;;;2773084;31;21527;31
2023/01/01 11:52:57;;;;;;;4.60;2.28;;;18.40;99.90;;;;;;2603290;54;20065;31
2023/01/01 11:55:35;;;;;;;;;;;18.40;99.90;;;;;;2603348;54;20034;31
2023/01/01 11:58:15;;;;;;;6.90;2.77;;;18.40;99.90;;;;;;2603326;54;19934;31
2023/01/01 12:00:57;;;;;;;4.22;2.30;;;18.40;99.90;;;;;;2603281;54;20876;31
2023/01/01 12:03:34;;;;;;;5.50;2.90;;;18.40;99.90;;;;;;2603257;54;20833;31
2023/01/01 12:06:08;;;;;;;5.57;2.95;;;18.40;99.90;;;;;;2621513;46;20078;31
2023/01/01 12:08:47;;;;;;;5.40;2.65;;;18.50;99.90;;;;;;2603302;54;20056;31
2023/01/01 12:11:26;;;;;;;5.07;2.67;;;18.40;99.90;;;;;;2604327;54;20053;-78
2023/01/01 12:14:04;;;;;;;6.22;2.65;;;18.50;99.90;;;;;;2603202;54;20033;31
2023/01/01 12:16:47;;;;;;;4.40;2.47;;;18.40;99.90;;;;;;2603188;54;20888;31
2023/01/01 12:19:24;;;;;;;8.73;3.00;;;18.50;99.90;;;;;;2603161;54;20888;31
2023/01/01 12:22:01;;;;;;;5.55;3.45;;;18.40;99.90;;;;;;2603292;54;20023;31
2023/01/01 12:24:36;;;;;;;6.25;2.75;;;18.40;99.90;;;;;;2603091;54;20033;31
2023/01/01 12:27:19;;;;;;;5.53;2.75;;;18.40;99.90;;;;;;2602932;54;20027;31
2023/01/01 12:30:03;;;;;;;7.50;3.00;;;18.40;99.90;;;;;;2603023;54;20081;31
2023/01/01 12:33:02;;;;;;;5.82;2.40;;;18.40;99.90;;;;;;2603121;54;20117;31
2023/01/01 12:36:09;;;;;;;5.95;2.17;;;18.40;99.90;;;;;;2603320;54;19934;31
2023/01/01 12:39:28;;;;;;;5.65;2.80;;;18.40;99.90;;;;;;2602806;54;20987;31
2023/01/01 12:42:06;;;;;;;9.38;3.10;;;18.40;99.90;;;;;;2602978;54;20124;31
2023/01/01 12:44:44;;;;;;;5.35;2.30;;;18.40;99.90;;;;;;2603121;54;20026;31
2023/01/01 12:47:26;;;;;;;5.82;2.80;;;18.40;99.90;;;;;;2602993;54;20124;31
2023/01/01 12:50:10;;;;;;;5.60;2.37;;;18.40;99.90;;;;;;2602907;54;20029;31
2023/01/01 12:52:51;;;;;;;7.32;3.00;;;18.30;99.90;;;;;;2602921;54;20834;31
2023/01/01 12:55:49;;;;;;;6.93;2.65;;;18.30;99.90;;;;;;2602833;54;20027;31
2023/01/01 12:58:28;;;;;;;4.20;2.35;;;18.30;99.90;;;;;;2602941;54;20919;31
2023/01/01 13:01:07;;;;;;;6.53;3.08;;;18.30;99.90;;;;;;2603539;54;19934;31
2023/01/01 13:03:49;;;;;;;4.65;2.80;;;18.20;99.90;;;;;;2603146;54;20783;31
2023/01/01 13:06:36;;;;;;;5.70;3.30;;;18.20;99.90;;;;;;2621985;46;20126;31
2023/01/01 13:09:16;;;;;;;6.03;3.93;;;18.20;99.90;;;;;;2603708;54;20038;31
2023/01/01 13:11:55;;;;;;;6.47;2.90;;;18.10;99.90;;;;;;2606245;46;20865;31
2023/01/01 13:14:30;;;;;;;6.50;2.80;;;18.10;99.90;;;;;;2603778;54;19989;31
2023/01/01 13:17:05;;;;;;;6.77;2.77;;;18.10;99.90;;;;;;2602888;54;20886;31
2023/01/01 13:19:41;;;;;;;6.10;3.20;;;18.00;99.90;;;;;;2602906;54;21287;31
2023/01/01 13:22:44;;;;;;;6.97;2.70;;;18.00;99.90;;;;;;2603539;54;20883;31
2023/01/01 13:25:23;;;;;;;7.03;3.13;;;18.00;99.90;;;;;;2603627;54;20023;31
2023/01/01 13:28:07;;;;;;;5.10;3.00;;;17.90;99.90;;;;;;2603812;54;19934;31
2023/01/01 13:30:52;;;;;;;6.55;3.38;;;17.90;99.90;;;;;;2603713;54;20026;31
2023/01/01 13:33:30;;;;;;;4.93;3.30;;;17.90;99.90;;;;;;2621988;46;20993;31
2023/01/01 13:36:32;;;;;;;9.57;3.22;;;17.80;99.90;;;;;;2621996;46;20068;31
2023/01/01 13:39:11;;;;;;;6.45;3.50;;;17.70;99.90;;;;;;2603488;54;21013;31
2023/01/01 13:41:46;;;;;;;5.97;3.10;;;17.70;99.90;;;;;;2603586;54;20081;31
2023/01/01 13:44:22;;;;;;;7.38;3.20;;;17.70;99.90;;;;;;2603043;54;20038;31
2023/01/01 13:47:03;;;;;;;;;;;17.60;99.90;;;;;;2603810;54;20800;31
2023/01/01 13:49:45;;;;;;;8.40;3.35;;;17.60;99.90;;;;;;2603697;54;19950;31
2023/01/01 13:52:38;;;;;;;4.97;3.20;;;17.50;99.90;;;;;;2603639;54;20802;31
2023/01/01 13:55:42;;;;;;;5.65;2.70;;;17.50;99.90;;;;;;2603822;54;20054;31
2023/01/01 13:58:15;;;;;;;10.80;3.40;;;17.40;99.90;;;;;;2621883;46;20905;31
2023/01/01 14:01:03;;;;;;;20.05;3.50;;;17.40;99.90;;;;;;2603785;54;20117;31
2023/01/01 14:03:45;;;;;;;10.98;4.03;;;17.30;99.90;;;;;;2603394;54;20042;31
2023/01/01 14:06:25;;;;;;;15.85;4.55;;;17.30;99.90;;;;;;2603857;54;20031;31
2023/01/01 14:09:04;;;;;;;8.95;3.90;;;17.20;99.90;;;;;;2603437;54;20191;31
2023/01/01 14:11:41;;;;;;;16.48;4.13;;;17.20;99.90;;;;;;2602807;54;20946;31